Corum, Turkey
Current Conditions -  °F | °C
As of 12:20 AM on Tuesday 21 Oct 2014 (Local Time) from LTAP Reporting Station
Clear Clear  
Wind Chill: 32°   Ceiling: Unl
Heat Index: 36°   Visibility: 6mi
Dew Point: 32°   Wind: 5mph
Humidity: 87%   Direction: 310°NW
Pressure: 30.09"   Gusts: NA
Location:  40.56°N, 34.96°E
Report Text: LTAP 202120Z 31004KT CAVOK 02/00 Q1019 NOSIG
Loading
Personal Weather Stations






























Interactive Weather Map
Tropical Storm Tracking
New forecast layout! Learn more

10-Day Weather Forecast

Advertisements
Track Severe Weather on mobile